Time;durP1;ratioP1;P1;durP2;ratioP2;P2;SDS_P1;SDS_P2;PMS_P1;PMS_P2;Temp;Humidity;BMP_temperature;BMP_pressure;BME280_temperature;BME280_humidity;BME280_pressure;Samples;Min_cycle;Max_cycle;Signal;HPM_P1;HPM_P2
2023/10/21 05:00:16;;;;;;;1.27;1.00;;;;;;;;;;6118565;23;20435;-71
2023/10/21 05:02:41;;;;;;;2.20;1.20;;;;;;;;;;5012049;28;20521;-71
2023/10/21 05:05:08;;;;;;;2.40;0.80;;;;;;;;;;5012419;28;20525;-71
2023/10/21 05:07:34;;;;;;;1.93;0.80;;;;;;;;;;5012206;28;20406;-71
2023/10/21 05:10:01;;;;;;;1.67;1.00;;;;;;;;;;5012368;28;20432;-71
2023/10/21 05:12:27;;;;;;;5.70;1.27;;;;;;;;;;4993589;28;20505;-71
2023/10/21 05:14:53;;;;;;;6.60;1.07;;;;;;;;;;4992782;28;20442;-71
2023/10/21 05:17:18;;;;;;;1.10;1.03;;;;;;;;;;4992395;28;20466;-71
2023/10/21 05:19:44;;;;;;;1.77;1.20;;;;;;;;;;4992239;28;20503;-71
2023/10/21 05:22:10;;;;;;;1.30;1.00;;;;;;;;;;4992517;28;20461;-70
2023/10/21 05:24:36;;;;;;;2.30;1.00;;;;;;;;;;4998929;28;20411;-71
2023/10/21 05:27:02;;;;;;;5.43;0.90;;;;;;;;;;5007446;28;20426;-72
2023/10/21 05:29:28;;;;;;;1.27;1.10;;;;;;;;;;5006102;28;20419;-72
2023/10/21 05:31:54;;;;;;;4.50;1.23;;;;;;;;;;5007096;28;20530;-72
2023/10/21 05:34:20;;;;;;;4.60;1.40;;;;;;;;;;5007196;28;20423;-73
2023/10/21 05:36:47;;;;;;;1.90;1.10;;;;;;;;;;4982100;28;20803;-72
2023/10/21 05:39:13;;;;;;;3.67;1.30;;;;;;;;;;4997200;28;20505;-72
2023/10/21 05:41:42;;;;;;;1.43;1.10;;;;;;;;;;4998842;28;20441;-71
2023/10/21 05:44:08;;;;;;;2.40;1.20;;;;;;;;;;4996691;28;20414;-71
2023/10/21 05:46:34;;;;;;;1.60;1.10;;;;;;;;;;4997118;28;20423;-72
2023/10/21 05:49:01;;;;;;;1.30;1.20;;;;;;;;;;4995973;28;20407;-71
2023/10/21 05:51:27;;;;;;;2.67;1.33;;;;;;;;;;4996126;28;20797;-72
2023/10/21 05:53:53;;;;;;;2.10;1.03;;;;;;;;;;4996128;28;20941;-72
2023/10/21 05:56:19;;;;;;;3.07;0.90;;;;;;;;;;4996084;28;20411;-72
2023/10/21 05:58:45;;;;;;;1.50;0.93;;;;;;;;;;4995779;28;20768;-72
2023/10/21 06:01:12;;;;;;;1.00;0.90;;;;;;;;;;4996065;28;20807;-72
2023/10/21 06:03:39;;;;;;;5.40;1.00;;;;;;;;;;4995918;28;20429;-71
2023/10/21 06:06:05;;;;;;;3.40;1.23;;;;;;;;;;4995807;28;20407;-72
2023/10/21 06:08:32;;;;;;;1.47;0.93;;;;;;;;;;4996011;28;20415;-71
2023/10/21 06:10:58;;;;;;;1.33;0.90;;;;;;;;;;4995992;28;20449;-71
2023/10/21 06:13:24;;;;;;;1.00;1.00;;;;;;;;;;4978202;28;20427;-71
2023/10/21 06:15:51;;;;;;;1.67;1.23;;;;;;;;;;4995594;28;20415;-73
2023/10/21 06:18:17;;;;;;;2.13;1.10;;;;;;;;;;4995479;28;20493;-72
2023/10/21 06:20:48;;;;;;;1.40;1.13;;;;;;;;;;4995150;28;20562;-72
2023/10/21 06:23:14;;;;;;;4.63;1.63;;;;;;;;;;4995660;28;20497;-72
2023/10/21 06:25:40;;;;;;;1.00;1.00;;;;;;;;;;4977449;28;20422;-72
2023/10/21 06:28:07;;;;;;;2.30;1.00;;;;;;;;;;4994919;28;20438;-72
2023/10/21 06:30:35;;;;;;;3.53;1.03;;;;;;;;;;4995010;28;20462;-73
2023/10/21 06:33:01;;;;;;;2.43;1.20;;;;;;;;;;4995504;28;20909;-72
2023/10/21 06:35:27;;;;;;;1.00;0.97;;;;;;;;;;4995015;28;20431;-72
2023/10/21 06:37:54;;;;;;;1.83;1.40;;;;;;;;;;4995056;28;20470;-73
2023/10/21 06:40:20;;;;;;;3.13;1.50;;;;;;;;;;4994416;28;20427;-72
2023/10/21 06:42:46;;;;;;;2.00;1.00;;;;;;;;;;4995276;28;20886;-71
2023/10/21 06:45:12;;;;;;;1.50;1.10;;;;;;;;;;4995293;28;20886;-72
2023/10/21 06:47:38;;;;;;;2.67;1.00;;;;;;;;;;4995547;28;20422;-71
2023/10/21 06:50:04;;;;;;;1.47;0.83;;;;;;;;;;4993483;28;20438;-72
2023/10/21 06:52:31;;;;;;;1.40;1.10;;;;;;;;;;4995025;28;20446;-71
2023/10/21 06:54:57;;;;;;;1.20;1.10;;;;;;;;;;4995246;28;20439;-71
2023/10/21 06:57:23;;;;;;;1.60;1.23;;;;;;;;;;4995023;28;20462;-73
2023/10/21 06:59:52;;;;;;;1.77;1.07;;;;;;;;;;4994598;28;20414;-73
2023/10/21 07:02:18;;;;;;;3.50;1.60;;;;;;;;;;4978396;28;20463;-72
2023/10/21 07:04:44;;;;;;;4.30;1.37;;;;;;;;;;4996010;28;20418;-73
2023/10/21 07:07:10;;;;;;;1.30;1.00;;;;;;;;;;4995745;28;20419;-72
2023/10/21 07:09:37;;;;;;;4.00;1.40;;;;;;;;;;4977540;28;20423;-72
2023/10/21 07:12:04;;;;;;;1.10;1.10;;;;;;;;;;4994722;28;20473;-73
2023/10/21 07:14:30;;;;;;;1.33;0.90;;;;;;;;;;4994388;28;20427;-72
2023/10/21 07:16:56;;;;;;;1.90;0.90;;;;;;;;;;4994564;28;20508;-71
2023/10/21 07:19:22;;;;;;;1.00;0.90;;;;;;;;;;4994293;28;20410;-72
2023/10/21 07:21:49;;;;;;;3.30;1.23;;;;;;;;;;4994320;28;20438;-72
2023/10/21 07:24:15;;;;;;;0.90;0.80;;;;;;;;;;4994250;28;20453;-72
2023/10/21 07:26:41;;;;;;;1.97;1.27;;;;;;;;;;4994497;28;20415;-72
2023/10/21 07:29:07;;;;;;;1.50;1.00;;;;;;;;;;4994110;28;20418;-72
2023/10/21 07:31:36;;;;;;;1.70;1.10;;;;;;;;;;4994912;28;20439;-72
2023/10/21 07:34:02;;;;;;;2.37;1.13;;;;;;;;;;4994127;28;20552;-72
2023/10/21 07:36:28;;;;;;;1.57;1.03;;;;;;;;;;4994378;28;20443;-72
2023/10/21 07:38:54;;;;;;;4.83;0.97;;;;;;;;;;4993855;28;20399;-73
2023/10/21 07:41:20;;;;;;;2.20;1.00;;;;;;;;;;4994011;28;20435;-73
2023/10/21 07:43:46;;;;;;;1.73;0.80;;;;;;;;;;4994344;28;20407;-73
2023/10/21 07:46:13;;;;;;;1.23;0.70;;;;;;;;;;4994351;28;20431;-74
2023/10/21 07:48:39;;;;;;;1.50;0.93;;;;;;;;;;4993980;28;20474;-74
2023/10/21 07:51:05;;;;;;;1.90;0.97;;;;;;;;;;4997169;28;20513;-77
2023/10/21 07:53:32;;;;;;;2.30;0.80;;;;;;;;;;4995155;28;20462;-78
2023/10/21 07:55:57;;;;;;;3.23;0.97;;;;;;;;;;4997228;28;20406;-76
2023/10/21 07:58:24;;;;;;;6.57;1.23;;;;;;;;;;4993787;28;20836;-75
2023/10/21 08:00:51;;;;;;;2.53;1.00;;;;;;;;;;4990432;28;20474;-76
2023/10/21 08:03:17;;;;;;;1.73;1.00;;;;;;;;;;4994341;28;20437;-76
2023/10/21 08:05:43;;;;;;;0.97;0.77;;;;;;;;;;4992563;28;20866;-76
2023/10/21 08:08:10;;;;;;;1.77;0.90;;;;;;;;;;4975421;28;20434;-76
2023/10/21 08:10:36;;;;;;;3.13;1.00;;;;;;;;;;4994462;28;20473;-75
2023/10/21 08:13:02;;;;;;;1.60;1.10;;;;;;;;;;4993830;28;20446;-75
2023/10/21 08:15:29;;;;;;;2.40;1.20;;;;;;;;;;4993801;28;20463;-76
2023/10/21 08:17:55;;;;;;;2.07;1.10;;;;;;;;;;4993869;28;20467;-78
2023/10/21 08:20:21;;;;;;;1.60;0.90;;;;;;;;;;4994946;28;20429;-73
2023/10/21 08:22:47;;;;;;;1.30;1.07;;;;;;;;;;4993884;28;20494;-74
2023/10/21 08:25:13;;;;;;;2.00;0.90;;;;;;;;;;4993256;28;20544;-76
2023/10/21 08:27:39;;;;;;;4.00;1.13;;;;;;;;;;4994156;28;20440;-75
2023/10/21 08:30:09;;;;;;;1.10;0.80;;;;;;;;;;5007761;28;20442;-75
2023/10/21 08:32:35;;;;;;;2.60;1.20;;;;;;;;;;4980878;28;20438;-78
2023/10/21 08:35:01;;;;;;;1.80;1.10;;;;;;;;;;5000708;28;20423;-76
2023/10/21 08:37:27;;;;;;;2.70;1.10;;;;;;;;;;4975922;28;20974;-77
2023/10/21 08:39:53;;;;;;;3.30;1.17;;;;;;;;;;4993357;28;20418;-79
2023/10/21 08:42:19;;;;;;;6.63;1.30;;;;;;;;;;4993737;28;20426;-73
2023/10/21 08:44:49;;;;;;;2.07;1.00;;;;;;;;;;4993760;28;20461;-73
2023/10/21 08:47:17;;;;;;;1.43;1.00;;;;;;;;;;4992717;28;20430;-74
2023/10/21 08:49:47;;;;;;;5.63;1.40;;;;;;;;;;4992695;28;20423;-74
2023/10/21 08:52:14;;;;;;;2.30;1.00;;;;;;;;;;4992999;28;20469;-73
2023/10/21 08:54:42;;;;;;;2.77;0.90;;;;;;;;;;4993770;28;20415;-73
2023/10/21 08:57:09;;;;;;;1.53;1.00;;;;;;;;;;4991910;28;20458;-72
2023/10/21 08:59:36;;;;;;;2.33;1.53;;;;;;;;;;4992769;28;20422;-73
2023/10/21 09:02:02;;;;;;;1.43;1.03;;;;;;;;;;4973759;28;20865;-72
2023/10/21 09:04:28;;;;;;;2.70;1.00;;;;;;;;;;4992088;28;20419;-72
2023/10/21 09:06:59;;;;;;;1.77;1.00;;;;;;;;;;4992185;28;20411;-72
2023/10/21 09:09:26;;;;;;;3.00;0.90;;;;;;;;;;4992985;28;20418;-72
2023/10/21 09:12:03;;;;;;;3.50;1.07;;;;;;;;;;4994112;28;20961;-73
2023/10/21 09:14:29;;;;;;;1.00;0.87;;;;;;;;;;4992628;28;20437;-72
2023/10/21 09:16:56;;;;;;;2.43;1.10;;;;;;;;;;4975337;28;20513;-72
2023/10/21 09:19:26;;;;;;;2.37;1.43;;;;;;;;;;4992513;28;20970;-73
2023/10/21 09:21:52;;;;;;;2.53;1.40;;;;;;;;;;4992973;28;20427;-72
2023/10/21 09:24:22;;;;;;;1.40;1.03;;;;;;;;;;4992757;28;20407;-72
2023/10/21 09:26:49;;;;;;;2.70;1.50;;;;;;;;;;4993063;28;20422;-73
2023/10/21 09:29:18;;;;;;;1.37;0.90;;;;;;;;;;4992636;28;20519;-73
2023/10/21 09:31:47;;;;;;;1.97;1.10;;;;;;;;;;4992585;28;20438;-72
2023/10/21 09:34:25;;;;;;;4.33;1.30;;;;;;;;;;4992670;28;20949;-72
2023/10/21 09:36:55;;;;;;;2.13;1.10;;;;;;;;;;4992655;28;21025;-73
2023/10/21 09:39:21;;;;;;;1.80;1.10;;;;;;;;;;4992329;28;20415;-72
2023/10/21 09:41:48;;;;;;;1.53;0.83;;;;;;;;;;4992384;28;20427;-76
2023/10/21 09:44:15;;;;;;;1.60;1.00;;;;;;;;;;4992696;28;20635;-72
2023/10/21 09:46:43;;;;;;;2.33;0.97;;;;;;;;;;4992695;28;20434;-72
2023/10/21 09:49:11;;;;;;;2.67;1.20;;;;;;;;;;4992336;28;20430;-73
2023/10/21 09:51:41;;;;;;;2.40;1.00;;;;;;;;;;4992754;28;20431;-73
2023/10/21 09:54:10;;;;;;;3.60;1.20;;;;;;;;;;4992651;28;20891;-72
2023/10/21 09:56:36;;;;;;;2.90;1.03;;;;;;;;;;4992386;28;20465;-72
2023/10/21 09:59:02;;;;;;;2.77;0.87;;;;;;;;;;4992040;28;20415;-73
2023/10/21 10:01:29;;;;;;;1.47;1.07;;;;;;;;;;4991999;28;20447;-72
2023/10/21 10:03:55;;;;;;;1.70;0.87;;;;;;;;;;4992356;28;20430;-72
2023/10/21 10:06:22;;;;;;;3.43;1.20;;;;;;;;;;4992427;28;20445;-72
2023/10/21 10:08:48;;;;;;;3.10;1.60;;;;;;;;;;4991969;28;20950;-72
2023/10/21 10:11:18;;;;;;;1.77;1.40;;;;;;;;;;4992071;28;20426;-72
2023/10/21 10:13:48;;;;;;;0.87;0.70;;;;;;;;;;4991884;28;20411;-73
2023/10/21 10:16:24;;;;;;;2.67;0.97;;;;;;;;;;4991999;28;20409;-73
2023/10/21 10:18:55;;;;;;;1.80;0.87;;;;;;;;;;4992046;28;20433;-72
2023/10/21 10:21:22;;;;;;;2.70;1.10;;;;;;;;;;4992444;28;20459;-72
2023/10/21 10:23:51;;;;;;;6.00;1.27;;;;;;;;;;4992514;28;20890;-73
2023/10/21 10:26:36;;;;;;;2.37;1.30;;;;;;;;;;4995279;28;20442;-73
2023/10/21 10:29:25;;;;;;;1.53;0.80;;;;;;;;;;4995028;28;20402;-73
2023/10/21 10:32:11;;;;;;;1.77;1.03;;;;;;;;;;4995090;28;20910;-73
2023/10/21 10:34:42;;;;;;;5.87;1.20;;;;;;;;;;4995089;28;20399;-73
2023/10/21 10:37:23;;;;;;;1.53;0.80;;;;;;;;;;4996535;28;20466;-73
2023/10/21 10:39:49;;;;;;;3.17;1.20;;;;;;;;;;4996204;28;20454;-73
2023/10/21 10:42:15;;;;;;;3.10;1.30;;;;;;;;;;4996460;28;20427;-73
2023/10/21 10:44:42;;;;;;;1.50;0.90;;;;;;;;;;4996675;28;20434;-73
2023/10/21 10:47:10;;;;;;;2.10;1.00;;;;;;;;;;4996981;28;20548;-73
2023/10/21 10:49:55;;;;;;;2.80;0.80;;;;;;;;;;4996505;28;20419;-73
2023/10/21 10:52:28;;;;;;;9.27;1.30;;;;;;;;;;4978549;28;20441;-73
2023/10/21 10:54:54;;;;;;;2.77;0.90;;;;;;;;;;4995958;28;20407;-73
2023/10/21 10:57:23;;;;;;;2.17;0.90;;;;;;;;;;4978740;28;20883;-73
2023/10/21 10:59:50;;;;;;;1.77;0.80;;;;;;;;;;4996111;28;20415;-73
2023/10/21 11:02:17;;;;;;;4.63;1.20;;;;;;;;;;4996868;28;20446;-73
2023/10/21 11:04:44;;;;;;;1.10;0.80;;;;;;;;;;4997830;28;20422;-73
2023/10/21 11:07:12;;;;;;;1.63;1.00;;;;;;;;;;4978768;28;20415;-73
2023/10/21 11:09:38;;;;;;;2.77;1.10;;;;;;;;;;4978667;28;20426;-73
2023/10/21 11:12:04;;;;;;;3.13;1.13;;;;;;;;;;4996750;28;20800;-73
2023/10/21 11:14:30;;;;;;;5.80;1.10;;;;;;;;;;5007505;23;20550;-70
2023/10/21 11:16:56;;;;;;;2.47;1.00;;;;;;;;;;4974860;28;20455;-72
2023/10/21 11:19:23;;;;;;;1.87;1.30;;;;;;;;;;4974677;28;20455;-69
2023/10/21 11:21:49;;;;;;;2.30;1.43;;;;;;;;;;4974766;28;20411;-69
2023/10/21 11:24:16;;;;;;;1.90;1.10;;;;;;;;;;4974677;28;20479;-70
2023/10/21 11:26:42;;;;;;;2.00;1.10;;;;;;;;;;4974642;28;20411;-69
2023/10/21 11:29:08;;;;;;;3.27;1.00;;;;;;;;;;4974400;28;20957;-70
2023/10/21 11:31:35;;;;;;;1.60;0.70;;;;;;;;;;4974407;28;20443;-69
2023/10/21 11:34:14;;;;;;;2.77;1.17;;;;;;;;;;4974359;28;20438;-69
2023/10/21 11:36:44;;;;;;;4.80;1.00;;;;;;;;;;4973631;28;20922;-70
2023/10/21 11:39:13;;;;;;;6.40;1.00;;;;;;;;;;4974177;28;20416;-70
2023/10/21 11:41:57;;;;;;;3.47;1.40;;;;;;;;;;4974440;28;20404;-70
2023/10/21 11:44:27;;;;;;;2.20;0.80;;;;;;;;;;4974537;28;20507;-70
2023/10/21 11:46:57;;;;;;;2.00;1.10;;;;;;;;;;4974600;28;20423;-70
2023/10/21 11:49:26;;;;;;;3.23;1.40;;;;;;;;;;4974042;28;20522;-70
2023/10/21 11:51:54;;;;;;;2.37;1.70;;;;;;;;;;4974066;28;20831;-70
2023/10/21 11:54:33;;;;;;;2.87;1.40;;;;;;;;;;4974045;28;20426;-70
2023/10/21 12:08:35;;;;;;;1.87;1.37;;;;;;;;;;4973816;28;20562;-70
2023/10/21 12:26:57;;;;;;;3.33;1.10;;;;;;;;;;4974152;28;20495;-70
2023/10/21 12:35:19;;;;;;;1.73;1.10;;;;;;;;;;4976990;28;20419;-70
2023/10/21 12:40:38;;;;;;;3.53;1.90;;;;;;;;;;4974153;28;21016;-70
2023/10/21 12:45:54;;;;;;;3.27;1.43;;;;;;;;;;4974766;28;20542;-70
2023/10/21 12:48:21;;;;;;;1.40;1.03;;;;;;;;;;4973624;28;20400;-70
2023/10/21 12:50:50;;;;;;;2.03;0.90;;;;;;;;;;4973384;28;20400;-70
2023/10/21 12:53:17;;;;;;;3.57;1.83;;;;;;;;;;4973027;28;20411;-70
2023/10/21 12:55:44;;;;;;;2.60;1.20;;;;;;;;;;4973330;28;20404;-70
2023/10/21 12:58:10;;;;;;;8.70;1.27;;;;;;;;;;4973506;28;20452;-69
2023/10/21 13:00:36;;;;;;;2.27;1.57;;;;;;;;;;4973276;28;20475;-69
2023/10/21 13:03:10;;;;;;;6.23;1.57;;;;;;;;;;4973313;28;20404;-69
2023/10/21 13:05:36;;;;;;;0.93;0.87;;;;;;;;;;4972896;28;20427;-70
2023/10/21 13:08:07;;;;;;;1.57;1.07;;;;;;;;;;4972980;28;20419;-71
2023/10/21 13:10:33;;;;;;;1.60;1.07;;;;;;;;;;4972771;28;20450;-70
2023/10/21 13:13:01;;;;;;;1.30;1.10;;;;;;;;;;4972932;28;20447;-70
2023/10/21 13:15:27;;;;;;;3.53;1.40;;;;;;;;;;4972623;28;20459;-70
2023/10/21 13:17:53;;;;;;;1.40;1.00;;;;;;;;;;4972756;28;20973;-70
2023/10/21 13:20:19;;;;;;;4.70;1.33;;;;;;;;;;4955166;28;20416;-70
2023/10/21 13:22:45;;;;;;;3.33;1.00;;;;;;;;;;4973011;28;20416;-70
2023/10/21 13:25:13;;;;;;;4.03;1.30;;;;;;;;;;4972572;28;20455;-70
2023/10/21 13:27:40;;;;;;;3.07;1.30;;;;;;;;;;4973034;28;20783;-70
2023/10/21 13:30:10;;;;;;;3.70;1.83;;;;;;;;;;4972517;28;20435;-70
2023/10/21 13:32:37;;;;;;;3.27;1.43;;;;;;;;;;4973667;28;20416;-70
2023/10/21 13:35:09;;;;;;;4.80;2.20;;;;;;;;;;4972878;28;20501;-70
2023/10/21 13:37:36;;;;;;;7.03;3.07;;;;;;;;;;4972738;28;20507;-70
2023/10/21 13:40:03;;;;;;;5.73;1.93;;;;;;;;;;4972503;28;20415;-70
2023/10/21 13:42:28;;;;;;;3.90;2.17;;;;;;;;;;4973046;28;20412;-70
2023/10/21 13:44:54;;;;;;;4.63;1.57;;;;;;;;;;4972788;28;20438;-70
2023/10/21 13:47:20;;;;;;;2.27;1.13;;;;;;;;;;4972981;28;20486;-70
2023/10/21 13:49:46;;;;;;;2.57;1.33;;;;;;;;;;4972542;28;20420;-70
2023/10/21 13:52:12;;;;;;;2.10;0.93;;;;;;;;;;4973054;28;20426;-70
2023/10/21 13:54:38;;;;;;;3.07;1.47;;;;;;;;;;4972546;28;20495;-70
2023/10/21 13:57:05;;;;;;;3.70;1.37;;;;;;;;;;4972302;28;20464;-70
2023/10/21 13:59:31;;;;;;;1.70;1.17;;;;;;;;;;4974308;28;20495;-70
2023/10/21 14:01:57;;;;;;;2.70;1.60;;;;;;;;;;4976906;28;20404;-70
2023/10/21 14:04:25;;;;;;;4.50;1.57;;;;;;;;;;4976539;28;20446;-70
2023/10/21 14:06:52;;;;;;;2.20;1.50;;;;;;;;;;4976467;28;20412;-70
2023/10/21 14:09:24;;;;;;;7.50;3.03;;;;;;;;;;4976357;28;20914;-70
2023/10/21 14:11:51;;;;;;;6.10;1.40;;;;;;;;;;4977136;28;20757;-70
2023/10/21 14:14:17;;;;;;;1.37;0.93;;;;;;;;;;4976454;28;20455;-70
2023/10/21 14:16:43;;;;;;;4.10;0.80;;;;;;;;;;4976985;28;20416;-71
2023/10/21 14:19:09;;;;;;;2.70;1.20;;;;;;;;;;4976402;28;20411;-70
2023/10/21 14:21:36;;;;;;;4.40;1.17;;;;;;;;;;4976499;28;20422;-70
2023/10/21 14:24:02;;;;;;;5.40;1.83;;;;;;;;;;4976056;28;20436;-70
2023/10/21 14:26:28;;;;;;;2.60;1.50;;;;;;;;;;4976110;28;20426;-69
2023/10/21 14:28:56;;;;;;;5.07;1.77;;;;;;;;;;4975726;28;20439;-69
2023/10/21 14:31:30;;;;;;;2.47;1.20;;;;;;;;;;4976100;28;20439;-70
2023/10/21 14:33:56;;;;;;;2.07;1.13;;;;;;;;;;4979814;28;20430;-71
2023/10/21 14:36:23;;;;;;;2.40;1.20;;;;;;;;;;4986939;28;20408;-70
2023/10/21 14:38:50;;;;;;;3.00;1.40;;;;;;;;;;4987399;28;20507;-71
2023/10/21 14:41:16;;;;;;;1.70;1.00;;;;;;;;;;4976355;28;20419;-70
2023/10/21 14:43:44;;;;;;;2.50;1.20;;;;;;;;;;4975779;28;20518;-71
2023/10/21 14:46:11;;;;;;;8.13;1.47;;;;;;;;;;4975312;28;20412;-70
2023/10/21 14:48:37;;;;;;;2.47;1.40;;;;;;;;;;4974860;28;20412;-71
2023/10/21 14:51:03;;;;;;;5.60;1.97;;;;;;;;;;4974945;28;20426;-71
2023/10/21 14:53:29;;;;;;;1.87;1.27;;;;;;;;;;4975002;28;20912;-71
2023/10/21 14:55:55;;;;;;;2.23;1.13;;;;;;;;;;4974901;28;20412;-69
2023/10/21 14:58:25;;;;;;;1.93;1.20;;;;;;;;;;4974870;28;21000;-70
2023/10/21 15:00:52;;;;;;;5.20;1.50;;;;;;;;;;4974767;28;20408;-70
2023/10/21 15:03:21;;;;;;;2.90;1.20;;;;;;;;;;4974710;28;20435;-70
2023/10/21 15:05:47;;;;;;;2.10;1.07;;;;;;;;;;4974831;28;20475;-70
2023/10/21 15:08:20;;;;;;;10.57;1.93;;;;;;;;;;4974607;28;20892;-70
2023/10/21 15:10:47;;;;;;;2.70;1.50;;;;;;;;;;4973862;28;20910;-70
2023/10/21 15:13:13;;;;;;;2.97;1.50;;;;;;;;;;4975156;28;20404;-71
2023/10/21 15:15:42;;;;;;;1.83;1.27;;;;;;;;;;4974361;28;20435;-70
2023/10/21 15:18:07;;;;;;;2.37;1.40;;;;;;;;;;4974381;28;21037;-70
2023/10/21 15:20:33;;;;;;;3.77;2.00;;;;;;;;;;4974353;28;20411;-70
2023/10/21 15:23:00;;;;;;;4.00;2.50;;;;;;;;;;4974736;28;20413;-70
2023/10/21 15:25:26;;;;;;;4.93;2.17;;;;;;;;;;4956925;28;20447;-71
2023/10/21 15:27:52;;;;;;;6.73;3.77;;;;;;;;;;4974662;28;20833;-71
2023/10/21 15:30:19;;;;;;;4.33;1.90;;;;;;;;;;4974303;28;20416;-71
2023/10/21 15:32:46;;;;;;;4.00;2.27;;;;;;;;;;4974312;28;20412;-70
2023/10/21 15:35:12;;;;;;;3.20;2.30;;;;;;;;;;4974013;28;20450;-71
2023/10/21 15:37:39;;;;;;;8.23;1.73;;;;;;;;;;4973971;28;20490;-71
2023/10/21 15:40:08;;;;;;;4.10;1.70;;;;;;;;;;4974064;28;20846;-71
2023/10/21 15:42:34;;;;;;;6.53;2.13;;;;;;;;;;4973948;28;20408;-71
2023/10/21 15:45:00;;;;;;;3.87;1.50;;;;;;;;;;4973816;28;20432;-70
2023/10/21 15:47:26;;;;;;;8.17;3.73;;;;;;;;;;4973883;28;20470;-71
2023/10/21 15:49:52;;;;;;;9.70;5.17;;;;;;;;;;4973899;28;20423;-71
2023/10/21 15:52:19;;;;;;;8.50;4.00;;;;;;;;;;4973327;28;20447;-71
2023/10/21 15:54:45;;;;;;;5.60;2.73;;;;;;;;;;4973825;28;20448;-70
2023/10/21 15:57:11;;;;;;;7.60;3.33;;;;;;;;;;4973171;28;20456;-71
2023/10/21 15:59:37;;;;;;;6.23;3.20;;;;;;;;;;4972728;28;20419;-71
2023/10/21 16:02:03;;;;;;;9.00;3.97;;;;;;;;;;4973451;28;20819;-70
2023/10/21 16:04:29;;;;;;;10.17;4.20;;;;;;;;;;4973249;28;20432;-71
2023/10/21 16:06:55;;;;;;;6.40;2.40;;;;;;;;;;4973213;28;20442;-71
2023/10/21 16:09:21;;;;;;;5.47;2.30;;;;;;;;;;4955245;28;20508;-71
2023/10/21 16:11:47;;;;;;;3.43;2.37;;;;;;;;;;4972947;28;20973;-71
2023/10/21 16:14:14;;;;;;;8.47;3.90;;;;;;;;;;4972513;28;20796;-70
2023/10/21 16:16:40;;;;;;;6.33;3.70;;;;;;;;;;4972357;28;20412;-71
2023/10/21 16:19:06;;;;;;;7.77;4.80;;;;;;;;;;4972290;28;20412;-71
2023/10/21 16:21:32;;;;;;;7.43;3.27;;;;;;;;;;4972383;28;20495;-70
2023/10/21 16:23:58;;;;;;;7.13;3.97;;;;;;;;;;4971845;28;20474;-71
2023/10/21 16:26:24;;;;;;;6.90;4.43;;;;;;;;;;4972035;28;20408;-71
2023/10/21 16:28:50;;;;;;;4.67;2.57;;;;;;;;;;4971440;28;20416;-71
2023/10/21 16:31:16;;;;;;;10.00;2.53;;;;;;;;;;4971597;28;20431;-71
2023/10/21 16:33:42;;;;;;;5.87;2.57;;;;;;;;;;4971931;28;20467;-71
2023/10/21 16:36:08;;;;;;;6.73;2.60;;;;;;;;;;4972472;28;20419;-71
2023/10/21 16:38:35;;;;;;;4.30;3.00;;;;;;;;;;4972374;28;20829;-71
2023/10/21 16:41:01;;;;;;;3.43;2.33;;;;;;;;;;4972107;28;20971;-71
2023/10/21 16:43:27;;;;;;;7.43;2.93;;;;;;;;;;4972224;28;20447;-70
2023/10/21 16:45:53;;;;;;;4.20;2.70;;;;;;;;;;4972630;28;20422;-70
2023/10/21 16:48:18;;;;;;;4.73;2.50;;;;;;;;;;4955484;28;20427;-71
2023/10/21 16:50:47;;;;;;;7.67;3.10;;;;;;;;;;4972999;28;20479;-70
2023/10/21 16:53:13;;;;;;;6.07;2.83;;;;;;;;;;4955918;28;20420;-70
2023/10/21 16:55:41;;;;;;;5.13;2.70;;;;;;;;;;4973756;28;20424;-70
2023/10/21 16:58:07;;;;;;;11.07;4.20;;;;;;;;;;4973108;28;20514;-70
2023/10/21 17:00:33;;;;;;;4.90;3.30;;;;;;;;;;4972919;28;20415;-70
2023/10/21 17:03:02;;;;;;;6.20;3.03;;;;;;;;;;4973123;28;20903;-69
2023/10/21 17:05:28;;;;;;;6.07;2.90;;;;;;;;;;4973172;28;20445;-70
2023/10/21 17:07:54;;;;;;;7.07;2.90;;;;;;;;;;4973144;28;20951;-70
2023/10/21 17:10:20;;;;;;;4.93;3.53;;;;;;;;;;4972963;28;20773;-69
2023/10/21 17:12:46;;;;;;;7.50;4.20;;;;;;;;;;4973273;28;20404;-70
2023/10/21 17:15:12;;;;;;;6.47;3.87;;;;;;;;;;4973716;28;20448;-70
2023/10/21 17:17:38;;;;;;;10.63;5.03;;;;;;;;;;4986579;28;20483;-70
2023/10/21 17:20:07;;;;;;;6.63;5.07;;;;;;;;;;4982764;28;20415;-70
2023/10/21 17:22:33;;;;;;;8.30;4.63;;;;;;;;;;4982760;28;20864;-70
2023/10/21 17:24:59;;;;;;;9.37;5.30;;;;;;;;;;4983092;28;20424;-70
2023/10/21 17:27:25;;;;;;;10.17;5.23;;;;;;;;;;4980633;28;20442;-71
2023/10/21 17:29:51;;;;;;;11.20;5.47;;;;;;;;;;4981524;28;20424;-71
2023/10/21 17:32:17;;;;;;;18.20;6.17;;;;;;;;;;4982303;28;20424;-71
2023/10/21 17:34:43;;;;;;;15.70;5.53;;;;;;;;;;4993577;28;20443;-70
2023/10/21 17:37:09;;;;;;;11.93;6.07;;;;;;;;;;4994343;28;20522;-71
2023/10/21 17:39:35;;;;;;;9.70;5.10;;;;;;;;;;4974450;28;20443;-71
2023/10/21 17:42:02;;;;;;;8.43;4.97;;;;;;;;;;4996100;28;20403;-71
2023/10/21 17:44:28;;;;;;;10.37;5.50;;;;;;;;;;4982638;28;20435;-71
2023/10/21 17:46:55;;;;;;;7.40;5.33;;;;;;;;;;4977686;28;20448;-69
2023/10/21 17:49:21;;;;;;;12.57;5.17;;;;;;;;;;4976958;28;20442;-69
2023/10/21 17:51:48;;;;;;;10.40;6.03;;;;;;;;;;4977477;28;20416;-71
2023/10/21 17:54:15;;;;;;;9.13;4.83;;;;;;;;;;4976716;28;20447;-70
2023/10/21 17:56:41;;;;;;;7.07;5.07;;;;;;;;;;4976671;28;20403;-70
2023/10/21 17:59:07;;;;;;;10.07;5.67;;;;;;;;;;4976500;28;20439;-69
2023/10/21 18:01:33;;;;;;;13.70;5.00;;;;;;;;;;4976371;28;20447;-71
2023/10/21 18:03:59;;;;;;;9.70;5.20;;;;;;;;;;4976304;28;20431;-71
2023/10/21 18:06:26;;;;;;;11.73;5.30;;;;;;;;;;4976399;28;20404;-71
2023/10/21 18:08:52;;;;;;;8.27;5.50;;;;;;;;;;4988332;28;20426;-70
2023/10/21 18:11:18;;;;;;;8.43;4.60;;;;;;;;;;4974456;28;20423;-69
2023/10/21 18:13:44;;;;;;;7.83;4.60;;;;;;;;;;4989476;28;20549;-70
2023/10/21 18:16:10;;;;;;;11.07;5.60;;;;;;;;;;4976397;28;20412;-70
2023/10/21 18:18:36;;;;;;;9.17;6.43;;;;;;;;;;4976058;28;20471;-69
2023/10/21 18:21:02;;;;;;;11.60;6.20;;;;;;;;;;4975799;28;20761;-70
2023/10/21 18:23:28;;;;;;;7.07;4.73;;;;;;;;;;4958427;28;20903;-71
2023/10/21 18:25:58;;;;;;;9.73;4.67;;;;;;;;;;4975883;28;20486;-70
2023/10/21 18:28:24;;;;;;;5.60;3.83;;;;;;;;;;4975887;28;20482;-70
2023/10/21 18:30:50;;;;;;;10.30;5.00;;;;;;;;;;4975552;28;20915;-70
2023/10/21 18:33:16;;;;;;;7.30;4.07;;;;;;;;;;4975541;28;20436;-70
2023/10/21 18:35:42;;;;;;;7.60;4.47;;;;;;;;;;4976007;28;20920;-70
2023/10/21 18:38:08;;;;;;;6.93;3.87;;;;;;;;;;4975545;28;20872;-70
2023/10/21 18:40:34;;;;;;;5.63;3.73;;;;;;;;;;4975477;28;20756;-71
2023/10/21 18:43:00;;;;;;;5.20;3.60;;;;;;;;;;4975258;28;20522;-75
2023/10/21 18:45:26;;;;;;;10.97;4.50;;;;;;;;;;4974932;28;20431;-71
2023/10/21 18:47:52;;;;;;;6.20;4.87;;;;;;;;;;4975453;28;20420;-71
2023/10/21 18:50:18;;;;;;;5.00;3.50;;;;;;;;;;4975087;28;20415;-71
2023/10/21 18:52:45;;;;;;;6.00;4.43;;;;;;;;;;4975052;28;20410;-71
2023/10/21 18:55:11;;;;;;;4.70;3.27;;;;;;;;;;4975511;28;20443;-71
2023/10/21 18:57:37;;;;;;;5.17;3.30;;;;;;;;;;4975219;28;21213;-71
2023/10/21 19:00:03;;;;;;;10.40;3.73;;;;;;;;;;4975111;28;20502;-71
2023/10/21 19:02:29;;;;;;;6.13;4.20;;;;;;;;;;4975267;28;20408;-71
2023/10/21 19:04:55;;;;;;;9.90;3.97;;;;;;;;;;4975205;28;20947;-71
2023/10/21 19:07:21;;;;;;;9.70;4.57;;;;;;;;;;4975190;28;20436;-71
2023/10/21 19:09:47;;;;;;;6.93;4.40;;;;;;;;;;4974746;28;20416;-71
2023/10/21 19:12:13;;;;;;;7.23;4.50;;;;;;;;;;4975017;28;20426;-70
2023/10/21 19:14:39;;;;;;;6.70;4.23;;;;;;;;;;4957544;28;20506;-71
2023/10/21 19:17:05;;;;;;;6.57;4.47;;;;;;;;;;4974815;28;20463;-71
2023/10/21 19:19:33;;;;;;;12.97;3.83;;;;;;;;;;4974687;28;20846;-70
2023/10/21 19:21:59;;;;;;;8.00;4.67;;;;;;;;;;4975225;28;20407;-71
2023/10/21 19:24:25;;;;;;;4.73;3.87;;;;;;;;;;4975039;28;20451;-71
2023/10/21 19:26:51;;;;;;;9.43;4.37;;;;;;;;;;4974890;28;20592;-72
2023/10/21 19:29:17;;;;;;;5.73;4.07;;;;;;;;;;4974581;28;20408;-71
2023/10/21 19:31:45;;;;;;;6.30;4.57;;;;;;;;;;4974747;28;20576;-71
2023/10/21 19:34:11;;;;;;;5.23;3.77;;;;;;;;;;4974742;28;20512;-71
2023/10/21 19:36:39;;;;;;;5.20;3.90;;;;;;;;;;4974234;28;20499;-71
2023/10/21 19:39:06;;;;;;;6.50;3.10;;;;;;;;;;4973706;28;20958;-71
2023/10/21 19:41:32;;;;;;;5.00;3.83;;;;;;;;;;4973824;28;20428;-71
2023/10/21 19:43:58;;;;;;;4.23;3.50;;;;;;;;;;4974124;28;20439;-71
2023/10/21 19:46:24;;;;;;;5.60;3.40;;;;;;;;;;4973962;28;20943;-71
2023/10/21 19:48:50;;;;;;;6.50;4.10;;;;;;;;;;4973837;28;20411;-70
2023/10/21 19:51:16;;;;;;;17.73;4.17;;;;;;;;;;4974180;28;20515;-70
2023/10/21 19:53:42;;;;;;;6.23;3.80;;;;;;;;;;4974035;28;20463;-70
2023/10/21 19:56:09;;;;;;;4.53;2.60;;;;;;;;;;4973838;28;20444;-69
2023/10/21 19:58:35;;;;;;;7.27;3.93;;;;;;;;;;4973938;28;20471;-70
2023/10/21 20:01:11;;;;;;;6.70;3.70;;;;;;;;;;4973818;28;20986;-70
2023/10/21 20:03:39;;;;;;;9.87;4.17;;;;;;;;;;4974049;28;20427;-71
2023/10/21 20:06:05;;;;;;;3.30;2.60;;;;;;;;;;4956609;28;21055;-70
2023/10/21 20:08:32;;;;;;;4.13;3.13;;;;;;;;;;4973925;28;20784;-71
2023/10/21 20:11:01;;;;;;;4.47;3.20;;;;;;;;;;4973692;28;20416;-71
2023/10/21 20:13:27;;;;;;;3.97;2.77;;;;;;;;;;4973557;28;20416;-71
2023/10/21 20:15:53;;;;;;;8.20;3.83;;;;;;;;;;4973798;28;20400;-71
2023/10/21 20:18:19;;;;;;;3.83;3.20;;;;;;;;;;4974049;28;20471;-71
2023/10/21 20:20:45;;;;;;;4.17;3.17;;;;;;;;;;4956474;28;20416;-72